Time;durP1;ratioP1;P1;durP2;ratioP2;P2;SDS_P1;SDS_P2;PMS_P1;PMS_P2;Temp;Humidity;BMP_temperature;BMP_pressure;BME280_temperature;BME280_humidity;BME280_pressure;Samples;Min_cycle;Max_cycle;Signal;HPM_P1;HPM_P2
2022/01/21 00:00:17;;;;;;;11.73;2.28;;;;;;;;;;5018984;28;95328;-72
2022/01/21 00:02:43;;;;;;;17.23;2.67;;;;;;;;;;5018662;28;93999;-72
2022/01/21 00:05:10;;;;;;;11.75;2.88;;;;;;;;;;5018543;28;92400;-72
2022/01/21 00:07:37;;;;;;;13.02;2.38;;;;;;;;;;5018878;28;93573;-72
2022/01/21 00:10:04;;;;;;;12.65;2.33;;;;;;;;;;5018600;28;93931;-72
2022/01/21 00:12:32;;;;;;;11.10;2.20;;;;;;;;;;5018760;28;92228;-73
2022/01/21 00:14:58;;;;;;;10.13;2.30;;;;;;;;;;5000895;28;96734;-73
2022/01/21 00:17:25;;;;;;;13.52;2.95;;;;;;;;;;5018135;28;93618;-71
2022/01/21 00:30:03;;;;;;;15.90;3.10;;;;;;;;;;5021538;28;92304;-71
2022/01/21 00:30:52;;;;;;;13.65;2.30;;;;;;;;;;5018084;28;93748;-72
2022/01/21 00:33:19;;;;;;;15.70;2.95;;;;;;;;;;5018733;28;92398;-72
2022/01/21 00:35:48;;;;;;;12.88;2.28;;;;;;;;;;5000211;28;94340;-73
2022/01/21 00:38:15;;;;;;;14.10;3.42;;;;;;;;;;5000172;28;96051;-73
2022/01/21 00:40:41;;;;;;;13.27;2.78;;;;;;;;;;5000818;28;91637;-74
2022/01/21 00:43:20;;;;;;;12.20;2.58;;;;;;;;;;5021323;28;92268;-72
2022/01/21 00:45:47;;;;;;;16.60;2.90;;;;;;;;;;5018228;28;92194;-73
2022/01/21 00:48:15;;;;;;;13.63;2.40;;;;;;;;;;5016377;28;94765;-73
2022/01/21 00:50:42;;;;;;;10.52;2.80;;;;;;;;;;5017542;28;93694;-71
2022/01/21 00:53:08;;;;;;;18.65;2.50;;;;;;;;;;5000193;28;92586;-74
2022/01/21 00:55:34;;;;;;;14.05;2.70;;;;;;;;;;5000396;28;93971;-73
2022/01/21 00:58:01;;;;;;;14.88;3.15;;;;;;;;;;5017926;28;93847;-72
2022/01/21 01:00:27;;;;;;;13.57;2.30;;;;;;;;;;5017957;28;92370;-72
2022/01/21 01:02:54;;;;;;;12.10;2.35;;;;;;;;;;5017872;28;93525;-73
2022/01/21 01:05:20;;;;;;;17.08;2.47;;;;;;;;;;5020975;28;92888;-73
2022/01/21 01:07:49;;;;;;;20.60;2.92;;;;;;;;;;5017795;28;92645;-73
2022/01/21 01:10:23;;;;;;;14.40;3.58;;;;;;;;;;5017517;28;93073;-72
2022/01/21 01:19:52;;;;;;;18.98;2.97;;;;;;;;;;4983011;28;94887;-73
2022/01/21 01:21:16;;;;;;;23.63;2.35;;;;;;;;;;5017490;28;92493;-72
2022/01/21 01:29:12;;;;;;;8.98;2.33;;;;;;;;;;5002537;28;92399;-72
2022/01/21 01:31:38;;;;;;;13.95;2.90;;;;;;;;;;5000065;28;94639;-73
2022/01/21 01:34:05;;;;;;;16.15;3.10;;;;;;;;;;4999601;28;92327;-72
2022/01/21 01:36:31;;;;;;;14.23;2.75;;;;;;;;;;4999534;28;94001;-72
2022/01/21 01:39:07;;;;;;;13.85;2.25;;;;;;;;;;4997672;28;98640;-73
2022/01/21 01:41:39;;;;;;;12.15;2.50;;;;;;;;;;5017457;28;92349;-73
2022/01/21 01:49:37;;;;;;;14.30;2.47;;;;;;;;;;5020289;28;92254;-71
2022/01/21 01:52:09;;;;;;;10.23;2.38;;;;;;;;;;4999281;28;95870;-71
2022/01/21 01:54:37;;;;;;;17.05;3.28;;;;;;;;;;5017216;28;92440;-70
2022/01/21 01:57:03;;;;;;;10.43;2.15;;;;;;;;;;5017735;28;93120;-71
2022/01/21 01:59:30;;;;;;;13.45;2.25;;;;;;;;;;4998949;28;96478;-72
2022/01/21 02:01:58;;;;;;;10.13;1.90;;;;;;;;;;4999015;28;92372;-71
2022/01/21 02:04:26;;;;;;;15.45;2.85;;;;;;;;;;5015597;28;94700;-71
2022/01/21 02:06:52;;;;;;;11.98;2.17;;;;;;;;;;5016913;28;92730;-72
2022/01/21 02:09:19;;;;;;;17.60;2.38;;;;;;;;;;4999138;28;92395;-72
2022/01/21 02:11:46;;;;;;;19.10;2.75;;;;;;;;;;5002022;28;94624;-72
2022/01/21 02:14:17;;;;;;;18.20;2.75;;;;;;;;;;4998560;28;92386;-71
2022/01/21 02:22:12;;;;;;;12.60;2.15;;;;;;;;;;4999538;28;91653;-72
2022/01/21 02:24:49;;;;;;;11.27;2.28;;;;;;;;;;5016495;28;92389;-72
2022/01/21 02:27:15;;;;;;;15.00;2.70;;;;;;;;;;4998512;28;95416;-72
2022/01/21 02:29:51;;;;;;;13.38;2.80;;;;;;;;;;4997527;28;94702;-72
2022/01/21 02:32:19;;;;;;;9.65;1.98;;;;;;;;;;4998623;28;98423;-72
2022/01/21 02:34:47;;;;;;;9.25;2.00;;;;;;;;;;5019586;28;93583;-74
2022/01/21 02:37:15;;;;;;;7.70;1.88;;;;;;;;;;4998443;28;96778;-72
2022/01/21 02:39:41;;;;;;;13.05;2.40;;;;;;;;;;5019124;28;93887;-71
2022/01/21 02:42:08;;;;;;;7.25;2.25;;;;;;;;;;5002302;28;92497;-72
2022/01/21 02:44:34;;;;;;;13.43;2.67;;;;;;;;;;5002187;28;94452;-72
2022/01/21 02:47:04;;;;;;;13.00;2.20;;;;;;;;;;5020425;28;91750;-73
2022/01/21 02:49:35;;;;;;;15.48;2.72;;;;;;;;;;4998357;28;92406;-72
2022/01/21 02:52:03;;;;;;;12.40;2.65;;;;;;;;;;4998968;28;95368;-72
2022/01/21 02:54:31;;;;;;;21.13;2.80;;;;;;;;;;4996887;28;98547;-72
2022/01/21 02:56:58;;;;;;;6.28;1.92;;;;;;;;;;4985335;28;92407;-72
2022/01/21 02:59:24;;;;;;;14.40;2.00;;;;;;;;;;4999760;28;93565;-73
2022/01/21 03:01:51;;;;;;;14.02;2.20;;;;;;;;;;4998638;28;92976;-71
2022/01/21 03:04:29;;;;;;;11.93;2.47;;;;;;;;;;4998260;28;93932;-72
2022/01/21 03:06:55;;;;;;;9.30;2.22;;;;;;;;;;4998405;28;96375;-73
2022/01/21 03:09:22;;;;;;;12.07;2.38;;;;;;;;;;4998523;28;92319;-72
2022/01/21 03:11:48;;;;;;;11.43;1.80;;;;;;;;;;4998979;28;95440;-72
2022/01/21 03:14:15;;;;;;;7.15;1.92;;;;;;;;;;4999539;28;93469;-72
2022/01/21 03:16:41;;;;;;;12.80;1.92;;;;;;;;;;4998427;28;92621;-74
2022/01/21 03:19:07;;;;;;;6.85;2.10;;;;;;;;;;4999641;28;95609;-72
2022/01/21 03:21:34;;;;;;;9.45;2.10;;;;;;;;;;4998546;28;92425;-73
2022/01/21 03:24:00;;;;;;;11.30;1.75;;;;;;;;;;4998425;28;95559;-71
2022/01/21 03:26:27;;;;;;;11.68;2.10;;;;;;;;;;4998073;28;95405;-72
2022/01/21 03:28:56;;;;;;;14.63;1.73;;;;;;;;;;4998074;28;92442;-71
2022/01/21 03:31:27;;;;;;;14.32;1.52;;;;;;;;;;4997840;28;96029;-73
2022/01/21 03:33:53;;;;;;;13.63;1.88;;;;;;;;;;4997899;28;95572;-72
2022/01/21 03:36:20;;;;;;;17.20;2.13;;;;;;;;;;4998459;28;91636;-72
2022/01/21 03:38:46;;;;;;;8.68;1.85;;;;;;;;;;4998055;28;94641;-72
2022/01/21 03:41:13;;;;;;;8.60;1.63;;;;;;;;;;5000814;28;95493;-73
2022/01/21 03:43:39;;;;;;;11.85;3.10;;;;;;;;;;4996863;28;95399;-73
2022/01/21 03:46:06;;;;;;;10.80;1.60;;;;;;;;;;4997432;28;95576;-72
2022/01/21 03:48:34;;;;;;;11.13;1.80;;;;;;;;;;4997364;28;92442;-72
2022/01/21 03:51:00;;;;;;;6.63;1.65;;;;;;;;;;4996947;28;95838;-72
2022/01/21 03:53:27;;;;;;;11.82;1.50;;;;;;;;;;4997667;28;95702;-73
2022/01/21 03:55:53;;;;;;;14.02;1.92;;;;;;;;;;4997647;28;92484;-72
2022/01/21 03:58:20;;;;;;;7.43;1.38;;;;;;;;;;4997880;28;95870;-73
2022/01/21 04:00:49;;;;;;;18.98;2.05;;;;;;;;;;5000872;28;94861;-72
2022/01/21 04:03:17;;;;;;;14.93;1.58;;;;;;;;;;4997705;28;95097;-73
2022/01/21 04:05:45;;;;;;;13.40;1.58;;;;;;;;;;4997507;28;95632;-71
2022/01/21 04:08:12;;;;;;;7.43;1.50;;;;;;;;;;4995967;28;94883;-72
2022/01/21 04:10:42;;;;;;;12.00;2.95;;;;;;;;;;4997478;28;99048;-73
2022/01/21 04:13:14;;;;;;;11.02;2.10;;;;;;;;;;4998126;28;93527;-73
2022/01/21 04:15:43;;;;;;;13.55;2.25;;;;;;;;;;4997458;28;92381;-71
2022/01/21 04:18:10;;;;;;;7.78;2.20;;;;;;;;;;4997541;28;95746;-73
2022/01/21 04:20:36;;;;;;;12.95;1.75;;;;;;;;;;4996203;28;95427;-72
2022/01/21 04:23:03;;;;;;;9.07;1.70;;;;;;;;;;5001587;28;92283;-72
2022/01/21 04:25:30;;;;;;;8.55;1.63;;;;;;;;;;4997632;28;95830;-73
2022/01/21 04:27:56;;;;;;;11.15;1.92;;;;;;;;;;4997161;28;92323;-72
2022/01/21 04:30:23;;;;;;;6.72;1.45;;;;;;;;;;4996899;28;95817;-72
2022/01/21 04:32:49;;;;;;;8.70;2.28;;;;;;;;;;4996685;28;96227;-73
2022/01/21 04:35:24;;;;;;;7.05;1.75;;;;;;;;;;4997154;28;93003;-72
2022/01/21 04:37:55;;;;;;;8.43;1.67;;;;;;;;;;4998215;28;93243;-73
2022/01/21 04:40:26;;;;;;;12.45;1.92;;;;;;;;;;4996936;28;95655;-72
2022/01/21 04:48:28;;;;;;;10.68;1.58;;;;;;;;;;4996299;28;92372;-72
2022/01/21 04:50:57;;;;;;;10.55;2.15;;;;;;;;;;4997252;28;95135;-73
2022/01/21 04:53:26;;;;;;;8.85;1.23;;;;;;;;;;4996339;28;95934;-73
2022/01/21 04:56:08;;;;;;;11.50;1.52;;;;;;;;;;4996795;28;92151;-72
2022/01/21 04:58:35;;;;;;;9.35;1.85;;;;;;;;;;4995339;28;95554;-72
2022/01/21 05:01:04;;;;;;;13.10;1.38;;;;;;;;;;4996389;28;95419;-72
2022/01/21 05:03:32;;;;;;;12.38;1.58;;;;;;;;;;4996423;28;92337;-72
2022/01/21 05:06:00;;;;;;;11.43;1.77;;;;;;;;;;4996561;28;96233;-72
2022/01/21 05:08:33;;;;;;;8.52;1.48;;;;;;;;;;4999432;28;95795;-72
2022/01/21 05:11:01;;;;;;;9.70;1.42;;;;;;;;;;4996513;28;95796;-73
2022/01/21 05:13:36;;;;;;;7.78;1.25;;;;;;;;;;4996152;28;94704;-72
2022/01/21 05:18:48;;;;;;;10.18;1.30;;;;;;;;;;4996469;28;94246;-73
2022/01/21 05:21:25;;;;;;;9.27;1.40;;;;;;;;;;4996114;28;94890;-72
2022/01/21 05:24:04;;;;;;;17.10;1.60;;;;;;;;;;4980049;28;94760;-72
2022/01/21 05:26:36;;;;;;;13.70;1.50;;;;;;;;;;4997098;28;95704;-73
2022/01/21 05:29:05;;;;;;;10.30;1.30;;;;;;;;;;4995978;28;96169;-72
2022/01/21 05:31:46;;;;;;;10.25;1.30;;;;;;;;;;4999430;28;92400;-72
2022/01/21 05:34:27;;;;;;;13.80;1.50;;;;;;;;;;4996175;28;96195;-73
2022/01/21 05:37:15;;;;;;;7.78;1.40;;;;;;;;;;4996020;28;92353;-73
2022/01/21 05:39:58;;;;;;;14.90;1.52;;;;;;;;;;4996325;28;95786;-72
2022/01/21 05:42:43;;;;;;;11.23;1.90;;;;;;;;;;4997030;28;91816;-72
2022/01/21 05:46:39;;;;;;;5.80;1.30;;;;;;;;;;4996702;28;92214;-72
2022/01/21 05:48:36;;;;;;;6.30;1.90;;;;;;;;;;4993250;28;96298;-72
2022/01/21 05:51:05;;;;;;;9.68;1.85;;;;;;;;;;4994613;28;95752;-73
2022/01/21 05:53:54;;;;;;;10.20;1.40;;;;;;;;;;4977279;28;92466;-72
2022/01/21 05:56:46;;;;;;;;;;;;;;;;;;4999286;28;96228;-72
2022/01/21 05:59:31;;;;;;;14.32;1.85;;;;;;;;;;4996113;28;92349;-72
2022/01/21 06:01:58;;;;;;;7.65;1.40;;;;;;;;;;4995705;28;95811;-72
2022/01/21 06:04:24;;;;;;;14.98;1.60;;;;;;;;;;4995927;28;95967;-72
2022/01/21 06:06:51;;;;;;;13.70;1.70;;;;;;;;;;4995995;28;92460;-72
2022/01/21 06:09:17;;;;;;;7.95;1.80;;;;;;;;;;4996381;28;95623;-72
2022/01/21 06:11:48;;;;;;;6.97;1.40;;;;;;;;;;4995706;28;96754;-71
2022/01/21 06:14:14;;;;;;;9.55;1.73;;;;;;;;;;4996444;28;92322;-73
2022/01/21 06:16:41;;;;;;;7.03;1.08;;;;;;;;;;4996607;28;96207;-72
2022/01/21 06:19:07;;;;;;;14.40;2.50;;;;;;;;;;4997102;28;93146;-72
2022/01/21 06:21:34;;;;;;;20.80;2.42;;;;;;;;;;4997187;28;93071;-72
2022/01/21 06:24:00;;;;;;;10.32;1.77;;;;;;;;;;4996641;28;93069;-72
2022/01/21 06:26:26;;;;;;;13.02;1.70;;;;;;;;;;4996756;28;92213;-72
2022/01/21 06:28:53;;;;;;;11.23;2.10;;;;;;;;;;4996843;28;93625;-72
2022/01/21 06:31:19;;;;;;;8.68;1.65;;;;;;;;;;4996430;28;93952;-72
2022/01/21 06:33:46;;;;;;;9.70;2.13;;;;;;;;;;4997255;28;91739;-72
2022/01/21 06:36:12;;;;;;;11.07;2.17;;;;;;;;;;4996740;28;92547;-73
2022/01/21 06:38:38;;;;;;;10.95;1.98;;;;;;;;;;4998453;28;94173;-73
2022/01/21 06:41:06;;;;;;;9.27;1.70;;;;;;;;;;4995058;28;94684;-73
2022/01/21 06:43:32;;;;;;;13.38;2.00;;;;;;;;;;4996593;28;92681;-71
2022/01/21 06:45:58;;;;;;;11.15;1.88;;;;;;;;;;4996494;28;92429;-72
2022/01/21 06:48:25;;;;;;;13.18;1.60;;;;;;;;;;5000081;28;93674;-72
2022/01/21 06:50:51;;;;;;;9.25;2.13;;;;;;;;;;5016390;28;93653;-72
2022/01/21 06:53:18;;;;;;;9.13;2.33;;;;;;;;;;5016546;28;92348;-72
2022/01/21 06:55:44;;;;;;;8.38;2.35;;;;;;;;;;5016476;28;93865;-72
2022/01/21 06:58:10;;;;;;;16.08;2.67;;;;;;;;;;5016690;28;93401;-73
2022/01/21 07:00:37;;;;;;;9.63;1.70;;;;;;;;;;5019116;28;92346;-72
2022/01/21 07:03:03;;;;;;;10.98;2.00;;;;;;;;;;5016363;28;93495;-72
2022/01/21 07:05:30;;;;;;;13.27;1.98;;;;;;;;;;5014794;28;94642;-72
2022/01/21 07:07:58;;;;;;;9.68;2.55;;;;;;;;;;5016155;28;95751;-71
2022/01/21 07:10:25;;;;;;;13.55;1.77;;;;;;;;;;5015953;28;93500;-71
2022/01/21 07:12:51;;;;;;;6.80;1.50;;;;;;;;;;5016041;28;92279;-73
2022/01/21 07:15:19;;;;;;;10.85;1.98;;;;;;;;;;5016180;28;93272;-71
2022/01/21 07:17:46;;;;;;;12.10;2.60;;;;;;;;;;5015969;28;94044;-72
2022/01/21 07:20:12;;;;;;;10.30;2.00;;;;;;;;;;5016257;28;92396;-72
2022/01/21 07:22:39;;;;;;;7.95;1.88;;;;;;;;;;5019606;28;93423;-72
2022/01/21 07:25:06;;;;;;;17.15;2.85;;;;;;;;;;5016121;28;92816;-73
2022/01/21 07:27:32;;;;;;;8.65;2.20;;;;;;;;;;5019006;28;93704;-72
2022/01/21 07:29:58;;;;;;;10.38;2.15;;;;;;;;;;5017412;28;96370;-71
2022/01/21 07:32:25;;;;;;;9.57;1.63;;;;;;;;;;5019418;28;92168;-72
2022/01/21 07:34:51;;;;;;;13.82;1.90;;;;;;;;;;5019625;28;92896;-70
2022/01/21 07:37:17;;;;;;;7.90;1.50;;;;;;;;;;5019036;28;93665;-71
2022/01/21 07:39:44;;;;;;;9.40;2.28;;;;;;;;;;5019312;28;92279;-71
2022/01/21 07:42:10;;;;;;;11.68;1.92;;;;;;;;;;5018739;28;93331;-71
2022/01/21 07:44:37;;;;;;;7.28;2.00;;;;;;;;;;5022196;28;92206;-71
2022/01/21 07:47:05;;;;;;;15.50;2.38;;;;;;;;;;5019815;28;93280;-71
2022/01/21 07:49:31;;;;;;;8.63;2.30;;;;;;;;;;5018439;28;93613;-71
2022/01/21 07:51:58;;;;;;;13.38;2.10;;;;;;;;;;5018956;28;92385;-72
2022/01/21 07:54:24;;;;;;;10.23;1.90;;;;;;;;;;5017650;28;94665;-73
2022/01/21 07:56:51;;;;;;;11.50;1.80;;;;;;;;;;5000953;28;93251;-72
2022/01/21 07:59:17;;;;;;;7.63;2.30;;;;;;;;;;5019067;28;92465;-72
2022/01/21 08:01:44;;;;;;;6.00;2.00;;;;;;;;;;5018846;28;93550;-72
2022/01/21 08:04:11;;;;;;;12.23;1.90;;;;;;;;;;5001220;28;93461;-72
2022/01/21 08:06:37;;;;;;;16.65;2.10;;;;;;;;;;5021394;28;92251;-73
2022/01/21 08:09:04;;;;;;;8.13;2.75;;;;;;;;;;5018673;28;94087;-71
2022/01/21 08:11:30;;;;;;;14.73;3.05;;;;;;;;;;5018855;28;91575;-69
2022/01/21 08:13:57;;;;;;;7.32;2.88;;;;;;;;;;5018812;28;92376;-71
2022/01/21 08:16:23;;;;;;;10.70;3.40;;;;;;;;;;5018610;28;93558;-71
2022/01/21 08:18:50;;;;;;;10.82;3.83;;;;;;;;;;5017189;28;94729;-70
2022/01/21 08:21:19;;;;;;;10.50;4.13;;;;;;;;;;5000797;28;97812;-71
2022/01/21 08:23:46;;;;;;;12.10;4.80;;;;;;;;;;5018159;28;93565;-69
2022/01/21 08:26:12;;;;;;;12.07;3.83;;;;;;;;;;5021430;28;92392;-71
2022/01/21 08:28:39;;;;;;;10.55;4.13;;;;;;;;;;5018326;28;93811;-72
2022/01/21 08:31:05;;;;;;;11.95;4.32;;;;;;;;;;5018494;28;92346;-71
2022/01/21 08:33:32;;;;;;;15.80;4.47;;;;;;;;;;5018500;28;93310;-71
2022/01/21 08:35:58;;;;;;;14.35;5.05;;;;;;;;;;5018220;28;93027;-71
2022/01/21 08:38:24;;;;;;;17.20;4.72;;;;;;;;;;5017858;28;92354;-72
2022/01/21 08:40:51;;;;;;;18.05;4.93;;;;;;;;;;5018210;28;93518;-72
2022/01/21 08:43:17;;;;;;;15.57;4.68;;;;;;;;;;5016556;28;96284;-73
2022/01/21 08:45:44;;;;;;;10.20;4.43;;;;;;;;;;5018206;28;92338;-71
2022/01/21 08:48:10;;;;;;;11.15;4.10;;;;;;;;;;5020691;28;93278;-71
2022/01/21 08:50:37;;;;;;;12.68;4.70;;;;;;;;;;5018198;28;92283;-72
2022/01/21 08:53:09;;;;;;;14.70;4.70;;;;;;;;;;5017938;28;93468;-72
2022/01/21 08:55:36;;;;;;;12.05;3.97;;;;;;;;;;5017851;28;93349;-71
2022/01/21 08:58:03;;;;;;;10.98;4.13;;;;;;;;;;5018114;28;92119;-72
2022/01/21 09:00:30;;;;;;;15.82;4.30;;;;;;;;;;5018546;28;93526;-73
2022/01/21 09:02:56;;;;;;;14.27;4.20;;;;;;;;;;5017773;28;93241;-75
2022/01/21 09:05:23;;;;;;;14.23;4.40;;;;;;;;;;5017903;28;92404;-72
2022/01/21 09:07:49;;;;;;;10.88;4.20;;;;;;;;;;5016104;28;95197;-72
2022/01/21 09:10:15;;;;;;;12.65;3.55;;;;;;;;;;5020598;28;93958;-73
2022/01/21 09:12:42;;;;;;;12.43;3.92;;;;;;;;;;5017796;28;93327;-73
2022/01/21 09:15:08;;;;;;;19.52;4.30;;;;;;;;;;4999536;28;94855;-74
2022/01/21 09:17:36;;;;;;;8.32;3.47;;;;;;;;;;5017904;28;92112;-74
2022/01/21 09:20:04;;;;;;;12.55;3.50;;;;;;;;;;5017813;28;93383;-74
2022/01/21 09:22:30;;;;;;;15.93;3.70;;;;;;;;;;5016252;28;93634;-73
2022/01/21 09:24:56;;;;;;;8.45;2.63;;;;;;;;;;5027032;27;91616;-73
2022/01/21 09:27:23;;;;;;;18.33;2.88;;;;;;;;;;5057683;27;93096;-73
2022/01/21 09:29:49;;;;;;;13.93;2.85;;;;;;;;;;5057744;27;93429;-74
2022/01/21 09:32:17;;;;;;;11.07;2.33;;;;;;;;;;5041308;27;94619;-73
2022/01/21 09:34:43;;;;;;;16.42;2.70;;;;;;;;;;5057476;27;93747;-74
2022/01/21 09:37:10;;;;;;;14.77;2.35;;;;;;;;;;5057360;27;92345;-73
2022/01/21 09:39:36;;;;;;;10.50;2.28;;;;;;;;;;5057526;27;93579;-72
2022/01/21 09:42:03;;;;;;;17.55;2.90;;;;;;;;;;5037289;28;93809;-73
2022/01/21 09:44:29;;;;;;;17.42;2.78;;;;;;;;;;5037401;28;93036;-73
2022/01/21 09:46:59;;;;;;;21.60;2.20;;;;;;;;;;5037506;28;94061;-72
2022/01/21 09:49:26;;;;;;;11.00;2.35;;;;;;;;;;5035784;28;93035;-73
2022/01/21 09:51:55;;;;;;;12.70;2.08;;;;;;;;;;5037495;28;92251;-72
2022/01/21 09:54:22;;;;;;;11.55;2.28;;;;;;;;;;5040310;28;93359;-72
2022/01/21 09:56:49;;;;;;;14.82;3.00;;;;;;;;;;5035614;28;94658;-72
2022/01/21 09:59:17;;;;;;;19.33;3.08;;;;;;;;;;5037413;28;94898;-72
2022/01/21 10:01:44;;;;;;;13.85;2.58;;;;;;;;;;5037123;28;93060;-75
2022/01/21 10:04:12;;;;;;;17.65;2.78;;;;;;;;;;5036958;28;92572;-71
2022/01/21 10:06:38;;;;;;;16.52;2.70;;;;;;;;;;5037329;28;93445;-72
2022/01/21 10:09:07;;;;;;;22.65;3.97;;;;;;;;;;5036826;28;93765;-72
2022/01/21 10:11:33;;;;;;;12.73;2.38;;;;;;;;;;5037049;28;92249;-72
2022/01/21 10:13:59;;;;;;;13.75;2.30;;;;;;;;;;5040310;28;93559;-72
2022/01/21 10:16:26;;;;;;;13.80;2.53;;;;;;;;;;5036530;28;92210;-70
2022/01/21 10:19:03;;;;;;;9.65;2.45;;;;;;;;;;5036809;28;93430;-70
2022/01/21 10:21:33;;;;;;;18.42;3.00;;;;;;;;;;5035211;28;95339;-71
2022/01/21 10:24:09;;;;;;;13.63;2.72;;;;;;;;;;5036766;28;93220;-72
2022/01/21 10:26:47;;;;;;;17.20;2.33;;;;;;;;;;5036907;28;93443;-74
2022/01/21 10:29:13;;;;;;;12.93;2.60;;;;;;;;;;5036210;28;93294;-72
2022/01/21 10:31:57;;;;;;;15.43;3.35;;;;;;;;;;5036834;28;92278;-75
2022/01/21 10:34:28;;;;;;;18.67;2.97;;;;;;;;;;5036746;28;93467;-72
2022/01/21 10:37:05;;;;;;;15.52;2.90;;;;;;;;;;5039670;28;93107;-72
2022/01/21 10:39:34;;;;;;;16.10;3.08;;;;;;;;;;5036997;28;91690;-72
2022/01/21 10:42:01;;;;;;;11.85;2.67;;;;;;;;;;5036430;28;93577;-72
2022/01/21 10:44:30;;;;;;;14.57;4.15;;;;;;;;;;5036736;28;92392;-76
2022/01/21 10:47:10;;;;;;;18.40;4.07;;;;;;;;;;5035185;28;94557;-75
2022/01/21 10:49:39;;;;;;;13.63;3.20;;;;;;;;;;5035990;28;96817;-74
2022/01/21 10:52:09;;;;;;;18.98;4.47;;;;;;;;;;5036325;28;92282;-74
2022/01/21 10:54:40;;;;;;;17.45;5.80;;;;;;;;;;5036479;28;93678;-74
2022/01/21 10:57:07;;;;;;;21.30;5.13;;;;;;;;;;5036376;28;93390;-71
2022/01/21 10:59:45;;;;;;;24.25;5.38;;;;;;;;;;5040605;27;92462;-72
2022/01/21 11:02:12;;;;;;;25.17;6.78;;;;;;;;;;5039504;28;93956;-72
2022/01/21 11:04:40;;;;;;;24.23;5.47;;;;;;;;;;5039958;28;91587;-71
2022/01/21 11:07:07;;;;;;;15.13;5.68;;;;;;;;;;5039968;28;92823;-71
2022/01/21 11:09:35;;;;;;;20.77;4.60;;;;;;;;;;5039752;28;93917;-70
2022/01/21 11:12:14;;;;;;;16.77;4.13;;;;;;;;;;5037853;28;94792;-71
2022/01/21 11:14:54;;;;;;;11.60;3.95;;;;;;;;;;5039899;28;95365;-70
2022/01/21 11:17:20;;;;;;;17.17;4.13;;;;;;;;;;5039710;28;93368;-72
2022/01/21 11:20:16;;;;;;;20.75;3.80;;;;;;;;;;5039697;28;92780;-72
2022/01/21 11:22:51;;;;;;;12.10;3.13;;;;;;;;;;5042852;28;93554;-72
2022/01/21 11:25:18;;;;;;;16.80;2.83;;;;;;;;;;5039433;28;92359;-72
2022/01/21 11:27:55;;;;;;;15.35;3.53;;;;;;;;;;5021121;28;94205;-70
2022/01/21 11:30:21;;;;;;;17.25;2.80;;;;;;;;;;5039889;28;92926;-71
2022/01/21 11:32:47;;;;;;;14.32;2.85;;;;;;;;;;5039498;28;92115;-70
2022/01/21 11:35:14;;;;;;;21.77;2.65;;;;;;;;;;5039710;28;92973;-71
2022/01/21 11:37:41;;;;;;;22.13;3.13;;;;;;;;;;5037636;28;95907;-71
2022/01/21 11:40:07;;;;;;;15.35;2.58;;;;;;;;;;5038909;28;92765;-71
2022/01/21 11:42:38;;;;;;;15.98;2.92;;;;;;;;;;5039496;28;93478;-71
2022/01/21 11:45:19;;;;;;;13.00;2.70;;;;;;;;;;5042507;28;93685;-70
2022/01/21 11:48:00;;;;;;;15.02;3.05;;;;;;;;;;5039483;28;93127;-70
2022/01/21 11:50:29;;;;;;;13.35;2.60;;;;;;;;;;5038565;28;92356;-71
2022/01/21 11:52:55;;;;;;;17.98;3.53;;;;;;;;;;5039334;28;92387;-71
2022/01/21 11:55:28;;;;;;;13.73;3.40;;;;;;;;;;5021659;28;96862;-70
2022/01/21 11:58:27;;;;;;;13.10;2.78;;;;;;;;;;5038772;28;93640;-70
2022/01/21 12:00:54;;;;;;;13.85;3.00;;;;;;;;;;4976679;28;92424;-70
2022/01/21 12:03:23;;;;;;;14.20;3.38;;;;;;;;;;5037784;28;94757;-71
2022/01/21 12:05:50;;;;;;;13.07;2.60;;;;;;;;;;5039098;28;93575;-71
2022/01/21 12:08:42;;;;;;;19.65;3.08;;;;;;;;;;5042302;28;92017;-70
2022/01/21 12:11:08;;;;;;;;;;;;;;;;;;5037712;27;92918;-70
2022/01/21 12:13:34;;;;;;;17.30;3.00;;;;;;;;;;5037511;28;116544;-71
2022/01/21 12:19:17;;;;;;;17.63;2.70;;;;;;;;;;5038665;28;93637;-71
2022/01/21 12:21:43;;;;;;;11.63;2.40;;;;;;;;;;5038714;28;91631;-71
2022/01/21 12:24:10;;;;;;;11.88;2.22;;;;;;;;;;5038461;28;95016;-70
2022/01/21 12:26:53;;;;;;;13.35;2.50;;;;;;;;;;5038583;28;93684;-71
2022/01/21 12:29:20;;;;;;;20.83;3.13;;;;;;;;;;5022544;28;94775;-72
2022/01/21 12:32:19;;;;;;;14.45;2.42;;;;;;;;;;5038467;28;93782;-72
2022/01/21 12:35:00;;;;;;;16.13;3.60;;;;;;;;;;5035702;28;92157;-72
2022/01/21 12:37:39;;;;;;;21.38;3.28;;;;;;;;;;5054925;27;93189;-71
2022/01/21 12:40:05;;;;;;;17.63;2.80;;;;;;;;;;5058359;27;93652;-71
2022/01/21 12:42:35;;;;;;;15.13;3.05;;;;;;;;;;5058264;27;92298;-72
2022/01/21 12:45:07;;;;;;;12.55;2.33;;;;;;;;;;5058917;27;93419;-73
2022/01/21 12:47:34;;;;;;;14.98;2.97;;;;;;;;;;5059183;27;92999;-71
2022/01/21 12:50:06;;;;;;;13.75;3.03;;;;;;;;;;5058108;27;92523;-71
2022/01/21 12:53:15;;;;;;;15.50;2.97;;;;;;;;;;5045776;27;92476;-72
2022/01/21 12:55:55;;;;;;;17.63;2.60;;;;;;;;;;5056517;27;95026;-72
2022/01/21 12:58:21;;;;;;;;;;;;;;;;;;5058886;27;95888;-72
2022/01/21 13:00:48;;;;;;;16.38;2.53;;;;;;;;;;5057438;27;122261;-71
2022/01/21 13:03:22;;;;;;;14.50;2.65;;;;;;;;;;5058626;27;92148;-71
2022/01/21 13:06:02;;;;;;;21.05;2.70;;;;;;;;;;5041322;27;92706;-71
2022/01/21 13:08:38;;;;;;;12.25;2.55;;;;;;;;;;5058682;27;92212;-72
2022/01/21 13:11:16;;;;;;;9.57;2.33;;;;;;;;;;5058553;27;92295;-71
2022/01/21 13:13:58;;;;;;;16.08;3.30;;;;;;;;;;5059100;27;93338;-71
2022/01/21 13:16:29;;;;;;;13.52;2.10;;;;;;;;;;5061444;27;92293;-72
2022/01/21 13:19:00;;;;;;;12.30;2.22;;;;;;;;;;5058708;27;93454;-71
2022/01/21 13:21:27;;;;;;;12.85;2.40;;;;;;;;;;5056275;27;96118;-71
2022/01/21 13:23:59;;;;;;;14.18;2.50;;;;;;;;;;5058474;27;92389;-72
2022/01/21 13:26:31;;;;;;;13.18;2.05;;;;;;;;;;5057728;27;93375;-71
2022/01/21 13:28:57;;;;;;;9.13;1.90;;;;;;;;;;5058099;27;93528;-71
2022/01/21 13:31:24;;;;;;;13.48;2.17;;;;;;;;;;5057951;27;93735;-72
2022/01/21 13:33:51;;;;;;;17.50;3.08;;;;;;;;;;5058040;27;93835;-71
2022/01/21 13:36:36;;;;;;;7.95;2.45;;;;;;;;;;5057696;27;93672;-71
2022/01/21 13:39:22;;;;;;;6.78;1.60;;;;;;;;;;5061077;27;91553;-71
2022/01/21 13:41:50;;;;;;;12.65;2.58;;;;;;;;;;5057576;27;93401;-71
2022/01/21 13:44:45;;;;;;;7.57;2.08;;;;;;;;;;5058328;27;92473;-71
2022/01/21 13:47:31;;;;;;;11.38;2.45;;;;;;;;;;5023136;27;94801;-71
2022/01/21 13:50:13;;;;;;;13.90;2.83;;;;;;;;;;5057279;27;93597;-71
2022/01/21 13:52:40;;;;;;;12.45;2.08;;;;;;;;;;5057465;27;92353;-71
2022/01/21 13:55:08;;;;;;;13.77;1.95;;;;;;;;;;5057853;27;93600;-71
2022/01/21 13:57:34;;;;;;;9.90;2.08;;;;;;;;;;5057379;27;93731;-71
2022/01/21 14:00:01;;;;;;;9.13;2.03;;;;;;;;;;5057249;27;92523;-71
2022/01/21 14:02:37;;;;;;;14.65;2.42;;;;;;;;;;5058489;27;93073;-71
2022/01/21 14:05:04;;;;;;;8.10;1.80;;;;;;;;;;5058135;27;91511;-73
2022/01/21 14:07:32;;;;;;;8.60;1.85;;;;;;;;;;5043367;27;92346;-71
2022/01/21 14:10:05;;;;;;;14.18;2.42;;;;;;;;;;5016852;28;94058;-71
2022/01/21 14:12:31;;;;;;;16.73;2.22;;;;;;;;;;5015342;28;94747;-71
2022/01/21 14:14:58;;;;;;;10.80;2.13;;;;;;;;;;5016756;28;95921;-71
2022/01/21 14:17:24;;;;;;;8.82;1.90;;;;;;;;;;5018003;27;93460;-72
2022/01/21 14:19:56;;;;;;;14.35;2.40;;;;;;;;;;5057293;27;92447;-71
2022/01/21 14:22:23;;;;;;;7.85;1.83;;;;;;;;;;5057270;27;93525;-72
2022/01/21 14:24:52;;;;;;;9.73;1.67;;;;;;;;;;5059875;27;93888;-72
2022/01/21 14:27:18;;;;;;;4.32;1.55;;;;;;;;;;5038915;27;95900;-72
2022/01/21 14:29:49;;;;;;;11.65;2.40;;;;;;;;;;5057656;27;92831;-71
2022/01/21 14:32:16;;;;;;;13.38;1.80;;;;;;;;;;5057224;27;92249;-72
2022/01/21 14:34:44;;;;;;;12.27;2.28;;;;;;;;;;5057866;27;93634;-72
2022/01/21 14:37:12;;;;;;;10.07;2.20;;;;;;;;;;5058620;27;96167;-72
2022/01/21 14:39:39;;;;;;;11.88;2.20;;;;;;;;;;5060761;27;92282;-72
2022/01/21 14:42:07;;;;;;;10.88;2.10;;;;;;;;;;5060778;27;92911;-72
2022/01/21 14:44:44;;;;;;;9.25;1.80;;;;;;;;;;5063546;27;93088;-71
2022/01/21 14:47:12;;;;;;;10.65;1.90;;;;;;;;;;5060732;27;93292;-72
2022/01/21 14:49:40;;;;;;;11.75;2.70;;;;;;;;;;5059808;27;93630;-71
2022/01/21 14:54:53;;;;;;;9.48;2.33;;;;;;;;;;5060941;27;93398;-71
2022/01/21 14:57:27;;;;;;;11.23;2.38;;;;;;;;;;5042385;27;93489;-71
2022/01/21 14:59:54;;;;;;;12.15;2.15;;;;;;;;;;5060361;27;92372;-72
2022/01/21 15:02:28;;;;;;;12.80;2.25;;;;;;;;;;5058016;27;94709;-71
2022/01/21 15:04:56;;;;;;;10.45;2.13;;;;;;;;;;5060202;27;93560;-72
2022/01/21 15:07:26;;;;;;;14.93;2.47;;;;;;;;;;5063780;27;92335;-71
2022/01/21 15:09:54;;;;;;;14.52;2.90;;;;;;;;;;5040342;27;96226;-74
2022/01/21 15:15:34;;;;;;;14.13;3.55;;;;;;;;;;4995037;28;93306;-72
2022/01/21 15:18:01;;;;;;;12.50;2.55;;;;;;;;;;5039603;28;93466;-71
2022/01/21 15:20:32;;;;;;;14.70;3.55;;;;;;;;;;5040204;28;91723;-71
2022/01/21 15:22:59;;;;;;;13.32;3.00;;;;;;;;;;5022173;28;92370;-72
2022/01/21 15:25:26;;;;;;;12.40;2.78;;;;;;;;;;5039071;28;93508;-71
2022/01/21 15:27:52;;;;;;;12.10;3.40;;;;;;;;;;5037942;28;94764;-72
2022/01/21 15:30:19;;;;;;;16.77;3.38;;;;;;;;;;5042611;28;95774;-72
2022/01/21 15:32:46;;;;;;;17.73;2.97;;;;;;;;;;5039510;28;93128;-71
2022/01/21 15:35:13;;;;;;;18.30;2.90;;;;;;;;;;5039472;28;94230;-70